createdAt,value
2023-10-22T00:01:51.302Z,52.78
2023-10-22T00:04:18.011Z,52.78
2023-10-22T00:06:44.762Z,52.74
2023-10-22T00:09:11.538Z,52.78
2023-10-22T00:11:38.527Z,52.71
2023-10-22T00:14:05.247Z,52.76
2023-10-22T00:16:31.942Z,52.76
2023-10-22T00:18:58.658Z,52.71
2023-10-22T00:21:25.344Z,52.75
2023-10-22T00:23:52.064Z,52.70
2023-10-22T00:26:18.783Z,52.68
2023-10-22T00:28:45.697Z,52.72
2023-10-22T00:31:12.492Z,52.76
2023-10-22T00:33:39.292Z,52.76
2023-10-22T00:36:06.169Z,52.74
2023-10-22T00:38:32.858Z,52.74
2023-10-22T00:40:59.580Z,52.72
2023-10-22T00:43:26.271Z,52.68
2023-10-22T00:45:53.026Z,52.77
2023-10-22T00:48:19.835Z,52.74
2023-10-22T00:50:46.564Z,52.70
2023-10-22T00:53:13.482Z,52.71
2023-10-22T00:55:40.174Z,52.73
2023-10-22T00:58:06.866Z,52.74
2023-10-22T01:00:33.558Z,52.70
2023-10-22T01:03:00.417Z,52.70
2023-10-22T01:05:27.260Z,52.69
2023-10-22T01:07:53.969Z,52.71
2023-10-22T01:10:20.866Z,52.63
2023-10-22T01:12:47.597Z,52.70
2023-10-22T01:15:14.364Z,52.65
2023-10-22T01:17:41.126Z,52.66
2023-10-22T01:20:07.881Z,52.66
2023-10-22T01:22:34.596Z,52.64
2023-10-22T01:25:01.281Z,52.56
2023-10-22T01:27:28.204Z,52.64
2023-10-22T01:29:54.939Z,52.61
2023-10-22T01:32:21.691Z,52.56
2023-10-22T01:34:48.392Z,52.57
2023-10-22T01:37:15.101Z,52.59
2023-10-22T01:39:41.814Z,52.62
2023-10-22T01:42:08.584Z,52.55
2023-10-22T01:44:35.719Z,52.55
2023-10-22T01:47:02.608Z,52.60
2023-10-22T01:49:29.284Z,52.48
2023-10-22T01:51:55.956Z,52.48
2023-10-22T01:54:22.627Z,52.49
2023-10-22T01:57:08.057Z,52.50
2023-10-22T01:59:53.121Z,52.52
2023-10-22T02:02:38.655Z,52.50
2023-10-22T02:05:23.791Z,52.47
2023-10-22T02:08:08.823Z,52.57
2023-10-22T02:10:54.559Z,52.40
2023-10-22T02:13:39.916Z,52.52
2023-10-22T02:16:25.513Z,52.53
2023-10-22T02:19:10.884Z,52.43
2023-10-22T02:21:56.079Z,52.45
2023-10-22T02:24:41.488Z,52.49
2023-10-22T02:27:26.375Z,52.42
2023-10-22T02:30:11.856Z,52.41
2023-10-22T02:32:57.487Z,52.47
2023-10-22T02:35:42.817Z,52.49
2023-10-22T02:38:28.158Z,52.41
2023-10-22T02:41:13.570Z,52.44
2023-10-22T02:43:58.740Z,52.48
2023-10-22T02:46:43.988Z,52.44
2023-10-22T02:49:29.352Z,52.42
2023-10-22T02:52:14.718Z,52.48
2023-10-22T02:54:59.844Z,52.55
2023-10-22T02:57:44.904Z,52.49
2023-10-22T03:00:36.858Z,52.51
2023-10-22T03:03:22.583Z,52.49
2023-10-22T03:06:08.127Z,52.55
2023-10-22T03:08:53.353Z,52.53
2023-10-22T03:11:38.782Z,52.53
2023-10-22T03:14:14.682Z,52.54
2023-10-22T03:16:41.394Z,52.54
2023-10-22T03:19:08.053Z,52.50
2023-10-22T03:21:34.710Z,52.56
2023-10-22T03:24:01.399Z,52.60
2023-10-22T03:26:28.281Z,52.60
2023-10-22T03:28:55.199Z,52.58
2023-10-22T03:31:21.928Z,52.53
2023-10-22T03:33:48.723Z,52.54
2023-10-22T03:36:15.640Z,52.58
2023-10-22T03:38:42.606Z,52.60
2023-10-22T03:41:09.354Z,52.57
2023-10-22T03:43:36.218Z,52.65
2023-10-22T03:46:02.922Z,52.62
2023-10-22T03:48:29.796Z,52.62
2023-10-22T03:50:56.745Z,52.56
2023-10-22T03:53:23.476Z,52.62
2023-10-22T03:55:50.159Z,52.67
2023-10-22T03:58:16.816Z,52.61
2023-10-22T04:00:43.552Z,52.72
2023-10-22T04:03:10.418Z,52.65
2023-10-22T04:05:37.245Z,52.68
2023-10-22T04:08:03.992Z,52.64
2023-10-22T04:10:30.655Z,52.70
2023-10-22T04:12:57.301Z,52.66
2023-10-22T04:15:23.987Z,52.70
2023-10-22T04:17:50.762Z,52.74
2023-10-22T04:20:17.534Z,52.72
2023-10-22T04:22:44.284Z,52.67
2023-10-22T04:25:11.200Z,52.70
2023-10-22T04:27:37.880Z,52.67
2023-10-22T04:30:04.685Z,52.74
2023-10-22T04:32:31.412Z,52.78
2023-10-22T04:34:58.055Z,52.77
2023-10-22T04:37:24.691Z,52.77
2023-10-22T04:39:51.559Z,52.74
2023-10-22T04:42:18.230Z,52.77
2023-10-22T04:44:44.919Z,52.79
2023-10-22T04:47:11.595Z,52.77
2023-10-22T04:49:38.262Z,52.72
2023-10-22T04:52:04.950Z,52.78
2023-10-22T04:54:31.615Z,52.82
2023-10-22T04:56:58.282Z,52.77
2023-10-22T04:59:24.996Z,52.81
2023-10-22T05:01:51.690Z,52.79
2023-10-22T05:04:18.456Z,52.83
2023-10-22T05:06:45.152Z,52.78
2023-10-22T05:09:11.954Z,52.79
2023-10-22T05:11:38.717Z,52.82
2023-10-22T05:14:05.397Z,52.84
2023-10-22T05:16:32.282Z,52.81
2023-10-22T05:18:58.995Z,52.83
2023-10-22T05:21:25.910Z,52.82
2023-10-22T05:23:52.607Z,52.82
2023-10-22T05:26:19.518Z,52.89
2023-10-22T05:28:46.196Z,52.87
2023-10-22T05:31:13.101Z,52.88
2023-10-22T05:33:39.845Z,52.85
2023-10-22T05:36:06.637Z,52.81
2023-10-22T05:38:33.377Z,52.77
2023-10-22T05:41:00.042Z,52.81
2023-10-22T05:43:26.929Z,52.87
2023-10-22T05:45:53.619Z,52.93
2023-10-22T05:48:20.354Z,52.88
2023-10-22T05:50:47.152Z,52.84
2023-10-22T05:53:14.038Z,52.81
2023-10-22T05:55:40.902Z,52.84
2023-10-22T05:58:07.828Z,52.87
2023-10-22T06:00:34.490Z,52.81
2023-10-22T06:03:01.198Z,52.88
2023-10-22T06:05:28.261Z,52.86
2023-10-22T06:07:54.937Z,52.82
2023-10-22T06:10:22.115Z,52.87
2023-10-22T06:12:48.822Z,52.87
2023-10-22T06:15:15.541Z,52.83
2023-10-22T06:17:42.287Z,52.83
2023-10-22T06:20:09.019Z,52.81
2023-10-22T06:22:35.880Z,52.75
2023-10-22T06:25:02.543Z,52.76
2023-10-22T06:27:29.205Z,52.81
2023-10-22T06:29:55.890Z,52.76
2023-10-22T06:32:22.805Z,52.75
2023-10-22T06:34:49.487Z,52.73
2023-10-22T06:37:16.151Z,52.70
2023-10-22T06:39:42.817Z,52.72
2023-10-22T06:42:09.539Z,52.73
2023-10-22T06:44:36.566Z,52.77
2023-10-22T06:47:03.451Z,52.76
2023-10-22T06:49:30.362Z,52.71
2023-10-22T06:51:57.040Z,52.74
2023-10-22T06:54:24.001Z,52.75
2023-10-22T06:56:50.764Z,52.79
2023-10-22T06:59:17.440Z,52.72
2023-10-22T07:01:44.168Z,52.67
2023-10-22T07:04:10.963Z,52.73
2023-10-22T07:06:37.729Z,52.69
2023-10-22T07:09:04.441Z,52.72
2023-10-22T07:11:31.233Z,52.70
2023-10-22T07:13:57.931Z,52.76
2023-10-22T07:16:24.633Z,52.76
2023-10-22T07:18:51.350Z,52.76
2023-10-22T07:21:18.165Z,52.72
2023-10-22T07:23:44.950Z,52.79
2023-10-22T07:26:11.695Z,52.76
2023-10-22T07:28:38.367Z,52.75
2023-10-22T07:31:05.038Z,52.72
2023-10-22T07:33:31.797Z,52.69
2023-10-22T07:35:58.799Z,52.71
2023-10-22T07:38:25.644Z,52.73
2023-10-22T07:40:52.421Z,52.69
2023-10-22T07:43:19.314Z,52.67
2023-10-22T07:45:46.039Z,52.65
2023-10-22T07:48:12.827Z,52.61
2023-10-22T07:50:39.788Z,52.67
2023-10-22T07:53:06.451Z,52.59
2023-10-22T07:55:33.109Z,52.61
2023-10-22T07:57:59.765Z,52.56
2023-10-22T08:00:26.689Z,52.61
2023-10-22T08:02:53.411Z,52.60
2023-10-22T08:05:20.119Z,52.54
2023-10-22T08:07:46.787Z,52.56
2023-10-22T08:10:13.775Z,52.52
2023-10-22T08:12:40.472Z,52.49
2023-10-22T08:15:07.235Z,52.56
2023-10-22T08:17:34.394Z,52.48
2023-10-22T08:20:01.690Z,52.47
2023-10-22T08:22:28.424Z,52.47
2023-10-22T08:24:55.130Z,52.49
2023-10-22T08:27:21.832Z,52.49
2023-10-22T08:29:48.535Z,52.44
2023-10-22T08:32:15.313Z,52.44
2023-10-22T08:34:41.981Z,52.33
2023-10-22T08:37:08.656Z,52.43
2023-10-22T08:39:35.308Z,52.41
2023-10-22T08:42:02.267Z,52.42
2023-10-22T08:44:28.963Z,52.44
2023-10-22T08:46:55.618Z,52.46
2023-10-22T08:49:22.297Z,52.45
2023-10-22T08:51:48.977Z,52.31
2023-10-22T08:54:15.660Z,52.16
2023-10-22T08:56:42.368Z,52.19
2023-10-22T08:59:09.071Z,52.37
2023-10-22T09:01:35.737Z,52.31
2023-10-22T09:04:02.447Z,52.29
2023-10-22T09:06:29.204Z,52.22
2023-10-22T09:08:55.939Z,52.20
2023-10-22T09:11:22.657Z,52.19
2023-10-22T09:13:49.350Z,52.21
2023-10-22T09:16:16.140Z,52.34
2023-10-22T09:18:43.160Z,52.27
2023-10-22T09:21:10.403Z,52.25
2023-10-22T09:23:37.064Z,52.13
2023-10-22T09:26:03.743Z,52.15
2023-10-22T09:28:30.848Z,52.20
2023-10-22T09:30:57.829Z,52.13
2023-10-22T09:33:24.849Z,52.20
2023-10-22T09:35:51.626Z,52.23
2023-10-22T09:38:18.316Z,52.17
2023-10-22T09:40:45.013Z,52.19
2023-10-22T09:43:11.734Z,52.14
2023-10-22T09:45:38.660Z,52.05
2023-10-22T09:48:12.091Z,51.91
2023-10-22T09:50:40.670Z,51.85
2023-10-22T09:53:07.336Z,51.84
2023-10-22T09:55:43.349Z,51.86
2023-10-22T09:58:10.037Z,51.91
2023-10-22T10:00:49.552Z,51.86
2023-10-22T10:03:17.601Z,51.82
2023-10-22T10:05:44.348Z,51.85
2023-10-22T10:08:11.021Z,51.86
2023-10-22T10:10:37.683Z,51.82
2023-10-22T10:13:04.351Z,51.87
2023-10-22T10:15:31.024Z,51.91
2023-10-22T10:17:57.753Z,51.96
2023-10-22T10:20:24.504Z,52.01
2023-10-22T10:22:51.163Z,52.06
2023-10-22T10:25:17.835Z,52.03
2023-10-22T10:27:44.495Z,51.94
2023-10-22T10:30:11.425Z,51.87
2023-10-22T10:32:38.123Z,51.92
2023-10-22T10:35:05.111Z,51.83
2023-10-22T10:37:31.763Z,51.78
2023-10-22T10:39:58.857Z,51.80
2023-10-22T10:42:25.564Z,51.75
2023-10-22T10:44:52.489Z,51.95
2023-10-22T10:47:19.249Z,51.90
2023-10-22T10:49:45.953Z,51.78
2023-10-22T10:52:14.001Z,51.87
2023-10-22T10:54:40.736Z,51.84
2023-10-22T10:57:07.456Z,51.98
2023-10-22T10:59:34.288Z,51.87
2023-10-22T11:02:01.021Z,51.84
2023-10-22T11:04:27.773Z,51.84
2023-10-22T11:06:54.517Z,51.88
2023-10-22T11:09:21.309Z,51.80
2023-10-22T11:11:48.025Z,51.86
2023-10-22T11:14:14.710Z,51.95
2023-10-22T11:16:41.724Z,51.89
2023-10-22T11:19:08.414Z,51.90
2023-10-22T11:21:35.342Z,51.98
2023-10-22T11:24:02.032Z,51.89
2023-10-22T11:26:28.981Z,51.89
2023-10-22T11:28:55.669Z,51.78
2023-10-22T11:31:22.352Z,51.81
2023-10-22T11:33:49.150Z,51.84
2023-10-22T11:36:15.901Z,51.76
2023-10-22T11:38:42.576Z,51.71
2023-10-22T11:41:09.246Z,51.79
2023-10-22T11:43:35.907Z,51.90
2023-10-22T11:46:02.632Z,51.89
2023-10-22T11:48:29.380Z,51.95
2023-10-22T11:50:56.236Z,51.87
2023-10-22T11:53:22.991Z,51.79
2023-10-22T11:55:49.682Z,51.90
2023-10-22T11:58:16.354Z,51.93
2023-10-22T12:00:43.022Z,51.71
2023-10-22T12:03:09.862Z,51.60
2023-10-22T12:05:36.647Z,51.60
2023-10-22T12:08:03.326Z,51.52
2023-10-22T12:10:30.286Z,51.53
2023-10-22T12:12:57.261Z,51.44
2023-10-22T12:15:23.965Z,51.43
2023-10-22T12:17:50.789Z,51.58
2023-10-22T12:20:17.464Z,51.66
2023-10-22T12:22:44.135Z,51.52
2023-10-22T12:25:10.826Z,51.83
2023-10-22T12:27:37.578Z,51.72
2023-10-22T12:30:04.377Z,51.79
2023-10-22T12:32:31.183Z,51.79
2023-10-22T12:34:57.932Z,51.73
2023-10-22T12:37:24.604Z,51.77
2023-10-22T12:39:51.542Z,51.62
2023-10-22T12:42:18.254Z,51.68
2023-10-22T12:44:45.237Z,51.65
2023-10-22T12:47:11.986Z,51.46
2023-10-22T12:49:39.076Z,51.19
2023-10-22T12:52:05.920Z,51.24
2023-10-22T12:54:32.860Z,51.19
2023-10-22T12:56:59.635Z,51.15
2023-10-22T12:59:26.541Z,50.99
2023-10-22T13:01:53.241Z,50.92
2023-10-22T13:04:20.370Z,50.85
2023-10-22T13:06:47.080Z,50.92
2023-10-22T13:09:13.923Z,50.78
2023-10-22T13:11:40.627Z,50.70
2023-10-22T13:14:07.290Z,50.38
2023-10-22T13:16:33.971Z,49.91
2023-10-22T13:19:00.640Z,49.60
2023-10-22T13:21:27.386Z,49.58
2023-10-22T13:23:54.106Z,49.64
2023-10-22T13:26:20.783Z,49.60
2023-10-22T13:28:47.466Z,49.39
2023-10-22T13:31:14.123Z,49.11
2023-10-22T13:33:40.801Z,49.18
2023-10-22T13:36:07.518Z,49.12
2023-10-22T13:38:34.190Z,49.03
2023-10-22T13:41:00.873Z,49.10
2023-10-22T13:43:27.545Z,49.03
2023-10-22T13:45:54.237Z,48.66
2023-10-22T13:48:21.008Z,48.93
2023-10-22T13:50:48.443Z,48.82
2023-10-22T13:53:15.245Z,49.08
2023-10-22T13:55:41.908Z,49.38
2023-10-22T13:58:08.607Z,49.13
2023-10-22T14:00:35.368Z,48.99
2023-10-22T14:03:02.197Z,49.41
2023-10-22T14:05:28.951Z,48.56
2023-10-22T14:07:55.634Z,48.82
2023-10-22T14:10:22.558Z,48.57
2023-10-22T14:12:49.217Z,48.36
2023-10-22T14:15:15.931Z,49.22
2023-10-22T14:17:42.696Z,48.99
2023-10-22T14:20:09.377Z,49.05
2023-10-22T14:22:36.043Z,49.16
2023-10-22T14:25:02.732Z,48.16
2023-10-22T14:27:29.453Z,48.45
2023-10-22T14:29:56.218Z,48.29
2023-10-22T14:32:22.915Z,48.21
2023-10-22T14:34:50.883Z,47.92
2023-10-22T14:37:22.038Z,47.80
2023-10-22T14:39:48.725Z,47.90
2023-10-22T14:42:15.477Z,47.97
2023-10-22T14:44:42.182Z,47.99
2023-10-22T14:47:09.138Z,48.18
2023-10-22T14:49:35.838Z,48.33
2023-10-22T14:52:03.435Z,48.43
2023-10-22T14:54:30.316Z,48.59
2023-10-22T14:56:57.407Z,48.70
2023-10-22T14:59:24.078Z,48.76
2023-10-22T15:01:51.048Z,48.88
2023-10-22T15:04:18.002Z,48.96
2023-10-22T15:06:45.033Z,49.35
2023-10-22T15:09:11.701Z,49.27
2023-10-22T15:11:38.628Z,49.39
2023-10-22T15:14:05.309Z,49.52
2023-10-22T15:16:32.244Z,49.53
2023-10-22T15:18:59.017Z,49.66
2023-10-22T15:21:25.996Z,49.67
2023-10-22T15:23:52.639Z,49.96
2023-10-22T15:26:19.813Z,50.03
2023-10-22T15:28:46.555Z,50.03
2023-10-22T15:31:13.223Z,50.09
2023-10-22T15:33:39.976Z,50.15
2023-10-22T15:36:06.759Z,50.35
2023-10-22T15:38:33.454Z,50.47
2023-10-22T15:41:00.131Z,50.63
2023-10-22T15:43:26.804Z,50.73
2023-10-22T15:45:53.617Z,50.76
2023-10-22T15:48:20.358Z,50.87
2023-10-22T15:50:47.036Z,50.88
2023-10-22T15:53:13.766Z,50.86
2023-10-22T15:55:40.440Z,50.91
2023-10-22T15:58:08.223Z,51.00
2023-10-22T16:00:36.579Z,51.06
2023-10-22T16:03:03.835Z,51.10
2023-10-22T16:05:30.600Z,51.12
2023-10-22T16:07:57.290Z,51.18
2023-10-22T16:10:23.978Z,51.18
2023-10-22T16:12:52.752Z,51.23
2023-10-22T16:15:19.830Z,51.28
2023-10-22T16:17:46.577Z,51.29
2023-10-22T16:20:13.338Z,51.33
2023-10-22T16:22:40.091Z,51.35
2023-10-22T16:25:06.761Z,51.37
2023-10-22T16:27:33.513Z,51.37
2023-10-22T16:30:00.276Z,51.43
2023-10-22T16:32:27.023Z,51.49
2023-10-22T16:34:53.731Z,51.37
2023-10-22T16:37:20.408Z,51.39
2023-10-22T16:39:47.138Z,51.50
2023-10-22T16:42:13.909Z,51.45
2023-10-22T16:44:40.579Z,51.50
2023-10-22T16:47:07.236Z,51.56
2023-10-22T16:49:33.892Z,51.48
2023-10-22T16:52:00.550Z,51.54
2023-10-22T16:54:27.253Z,51.49
2023-10-22T16:56:53.953Z,51.55
2023-10-22T16:59:20.628Z,51.61
2023-10-22T17:01:47.307Z,51.56
2023-10-22T17:04:14.039Z,51.58
2023-10-22T17:06:40.799Z,51.62
2023-10-22T17:09:07.571Z,51.59
2023-10-22T17:11:34.256Z,51.64
2023-10-22T17:14:00.957Z,51.60
2023-10-22T17:16:27.719Z,51.64
2023-10-22T17:18:54.840Z,51.63
2023-10-22T17:21:21.726Z,51.66
2023-10-22T17:23:48.679Z,51.67
2023-10-22T17:26:15.340Z,51.60
2023-10-22T17:28:42.265Z,51.65
2023-10-22T17:31:08.945Z,51.64
2023-10-22T17:33:49.296Z,51.63
2023-10-22T17:36:22.545Z,51.60
2023-10-22T17:38:49.470Z,51.65
2023-10-22T17:41:16.127Z,51.62
2023-10-22T17:43:43.068Z,51.70
2023-10-22T17:46:09.724Z,51.72
2023-10-22T17:48:36.664Z,51.70
2023-10-22T17:51:03.414Z,51.66
2023-10-22T17:53:30.566Z,51.71
2023-10-22T17:56:08.399Z,51.68
2023-10-22T17:58:37.172Z,51.71
2023-10-22T18:01:04.005Z,51.71
2023-10-22T18:03:30.942Z,51.72
2023-10-22T18:05:57.768Z,51.71
2023-10-22T18:08:24.446Z,51.77
2023-10-22T18:10:51.114Z,51.78
2023-10-22T18:13:18.053Z,51.74
2023-10-22T18:15:44.770Z,51.71
2023-10-22T18:18:11.767Z,51.76
2023-10-22T18:20:38.544Z,51.74
2023-10-22T18:23:05.240Z,51.79
2023-10-22T18:25:31.912Z,51.78
2023-10-22T18:27:58.580Z,51.77
2023-10-22T18:30:25.308Z,51.76
2023-10-22T18:32:52.011Z,51.77
2023-10-22T18:35:18.687Z,51.77
2023-10-22T18:37:45.343Z,51.76
2023-10-22T18:40:12.026Z,51.78
2023-10-22T18:42:38.744Z,51.84
2023-10-22T18:45:05.513Z,51.76
2023-10-22T18:47:32.236Z,51.77
2023-10-22T18:49:58.976Z,51.80
2023-10-22T18:52:26.033Z,51.79
2023-10-22T18:54:52.738Z,51.84
2023-10-22T18:57:19.450Z,51.79
2023-10-22T18:59:46.124Z,51.78
2023-10-22T19:02:12.815Z,51.77
2023-10-22T19:04:39.693Z,51.80
2023-10-22T19:07:06.580Z,51.76
2023-10-22T19:09:33.280Z,51.72
2023-10-22T19:11:59.955Z,51.82
2023-10-22T19:14:26.621Z,51.78
2023-10-22T19:16:53.258Z,51.78
2023-10-22T19:19:19.925Z,51.79
2023-10-22T19:21:46.646Z,51.77
2023-10-22T19:24:13.385Z,51.80
2023-10-22T19:26:40.088Z,51.82
2023-10-22T19:29:06.812Z,51.81
2023-10-22T19:31:33.526Z,51.79
2023-10-22T19:34:00.449Z,51.77
2023-10-22T19:36:27.262Z,51.79
2023-10-22T19:38:53.927Z,51.77
2023-10-22T19:41:20.613Z,51.80
2023-10-22T19:43:47.299Z,51.81
2023-10-22T19:46:14.003Z,51.80
2023-10-22T19:48:40.704Z,51.78
2023-10-22T19:51:07.414Z,51.83
2023-10-22T19:53:34.112Z,51.82
2023-10-22T19:56:00.909Z,51.78
2023-10-22T19:58:27.920Z,51.78
2023-10-22T20:00:54.593Z,51.81
2023-10-22T20:03:21.505Z,51.80
2023-10-22T20:05:48.400Z,51.78
2023-10-22T20:08:15.078Z,51.76
2023-10-22T20:10:43.645Z,51.76
2023-10-22T20:13:10.819Z,51.83
2023-10-22T20:15:38.085Z,51.82
2023-10-22T20:18:04.890Z,51.78
2023-10-22T20:20:33.762Z,51.77
2023-10-22T20:23:00.484Z,51.82
2023-10-22T20:25:27.167Z,51.76
2023-10-22T20:27:53.860Z,51.78
2023-10-22T20:30:20.551Z,51.77
2023-10-22T20:32:47.273Z,51.78
2023-10-22T20:35:13.977Z,51.78
2023-10-22T20:37:40.681Z,51.80
2023-10-22T20:40:07.437Z,51.79
2023-10-22T20:42:34.214Z,51.78
2023-10-22T20:45:01.136Z,51.75
2023-10-22T20:47:27.797Z,51.76
2023-10-22T20:49:54.486Z,51.76
2023-10-22T20:52:21.190Z,51.82
2023-10-22T20:54:48.015Z,51.73
2023-10-22T20:57:14.807Z,51.76
2023-10-22T20:59:41.470Z,51.77
2023-10-22T21:02:08.106Z,51.81
2023-10-22T21:04:34.877Z,51.76
2023-10-22T21:07:01.576Z,51.74
2023-10-22T21:09:28.277Z,51.69
2023-10-22T21:11:55.035Z,51.75
2023-10-22T21:14:21.740Z,51.75
2023-10-22T21:16:48.417Z,51.79
2023-10-22T21:19:15.089Z,51.80
2023-10-22T21:21:41.829Z,51.72
2023-10-22T21:24:08.578Z,51.76
2023-10-22T21:26:35.584Z,51.78
2023-10-22T21:29:02.311Z,51.78
2023-10-22T21:31:29.296Z,51.77
2023-10-22T21:33:56.081Z,51.75
2023-10-22T21:36:22.854Z,51.70
2023-10-22T21:38:49.558Z,51.69
2023-10-22T21:41:16.228Z,51.76
2023-10-22T21:43:42.877Z,51.68
2023-10-22T21:46:09.843Z,51.80
2023-10-22T21:48:36.931Z,51.72
2023-10-22T21:51:03.837Z,51.69
2023-10-22T21:53:30.512Z,51.73
2023-10-22T21:55:57.188Z,51.77
2023-10-22T21:58:23.854Z,51.69
2023-10-22T22:00:50.605Z,51.67
2023-10-22T22:03:17.481Z,51.70
2023-10-22T22:05:44.342Z,51.69
2023-10-22T22:08:11.046Z,51.71
2023-10-22T22:10:37.724Z,51.67
2023-10-22T22:13:04.387Z,51.71
2023-10-22T22:15:31.114Z,51.65
2023-10-22T22:17:57.932Z,51.67
2023-10-22T22:20:24.682Z,51.66
2023-10-22T22:22:51.353Z,51.63
2023-10-22T22:25:21.331Z,51.64
2023-10-22T22:27:50.479Z,51.63
2023-10-22T22:30:17.333Z,51.66
2023-10-22T22:32:44.248Z,51.66
2023-10-22T22:35:10.985Z,51.64
2023-10-22T22:37:38.002Z,51.61
2023-10-22T22:40:04.651Z,51.63
2023-10-22T22:42:31.639Z,51.63
2023-10-22T22:44:58.354Z,51.56
2023-10-22T22:47:25.008Z,51.64
2023-10-22T22:49:51.691Z,51.62
2023-10-22T22:52:18.358Z,51.60
2023-10-22T22:54:45.109Z,51.54
2023-10-22T22:57:11.854Z,51.63
2023-10-22T22:59:38.557Z,51.65
2023-10-22T23:02:05.193Z,51.57
2023-10-22T23:04:31.862Z,51.62
2023-10-22T23:06:58.551Z,51.57
2023-10-22T23:09:25.211Z,51.57
2023-10-22T23:11:51.943Z,51.57
2023-10-22T23:14:18.615Z,51.59
2023-10-22T23:16:45.278Z,51.52
2023-10-22T23:19:11.982Z,51.54
2023-10-22T23:21:38.719Z,51.49
2023-10-22T23:24:05.464Z,51.52
2023-10-22T23:26:32.164Z,51.51
2023-10-22T23:28:58.864Z,51.42
2023-10-22T23:31:25.611Z,51.46
2023-10-22T23:33:52.452Z,51.50
2023-10-22T23:36:19.196Z,51.50
2023-10-22T23:38:45.863Z,51.54
2023-10-22T23:41:12.544Z,51.42
2023-10-22T23:43:39.463Z,51.43
2023-10-22T23:46:06.133Z,51.41
2023-10-22T23:48:32.944Z,51.42
2023-10-22T23:50:59.688Z,51.40
2023-10-22T23:53:26.402Z,51.43
2023-10-22T23:55:53.083Z,51.42
2023-10-22T23:58:19.718Z,51.40
